createdAt,value
2022-10-07T00:00:48.912Z,2.25
2022-10-07T00:06:04.194Z,2.60
2022-10-07T00:11:19.894Z,2.47
2022-10-07T00:16:34.989Z,2.83
2022-10-07T00:21:49.950Z,3.22
2022-10-07T00:27:05.185Z,2.85
2022-10-07T00:32:20.917Z,2.60
2022-10-07T00:37:35.943Z,2.58
2022-10-07T00:42:51.231Z,2.35
2022-10-07T00:48:07.238Z,2.30
2022-10-07T00:53:22.921Z,2.67
2022-10-07T00:58:38.281Z,2.33
2022-10-07T01:03:54.035Z,2.63
2022-10-07T01:09:08.893Z,2.83
2022-10-07T01:14:23.914Z,2.35
2022-10-07T01:19:39.236Z,2.08
2022-10-07T01:24:54.910Z,2.38
2022-10-07T01:30:09.914Z,2.70
2022-10-07T01:35:25.944Z,2.40
2022-10-07T01:40:40.903Z,2.67
2022-10-07T01:45:56.014Z,2.85
2022-10-07T01:51:10.913Z,2.17
2022-10-07T01:56:26.276Z,2.72
2022-10-07T02:01:42.018Z,2.75
2022-10-07T02:06:57.903Z,2.95
2022-10-07T02:12:14.187Z,2.65
2022-10-07T02:17:30.028Z,2.80
2022-10-07T02:22:45.227Z,2.42
2022-10-07T02:28:01.050Z,3.50
2022-10-07T02:33:17.917Z,2.80
2022-10-07T02:38:33.251Z,2.83
2022-10-07T02:43:52.263Z,2.08
2022-10-07T02:49:07.689Z,3.00
2022-10-07T02:54:22.976Z,2.92
2022-10-07T02:59:37.908Z,2.90
2022-10-07T03:04:53.231Z,3.13
2022-10-07T03:10:09.980Z,3.25
2022-10-07T03:15:24.684Z,3.42
2022-10-07T03:20:40.908Z,3.63
2022-10-07T03:25:55.692Z,4.55
2022-10-07T03:31:10.740Z,2.97
2022-10-07T03:36:29.935Z,3.30
2022-10-07T03:41:45.915Z,3.30
2022-10-07T03:47:01.285Z,3.13
2022-10-07T03:52:18.285Z,2.70
2022-10-07T03:57:34.942Z,3.22
2022-10-07T04:02:50.044Z,3.03
2022-10-07T04:08:05.949Z,3.05
2022-10-07T04:13:21.255Z,3.47
2022-10-07T04:18:37.954Z,3.42
2022-10-07T04:23:52.946Z,3.17
2022-10-07T04:29:08.220Z,3.40
2022-10-07T04:34:24.292Z,2.65
2022-10-07T04:39:59.661Z,3.40
2022-10-07T04:45:15.942Z,37.30
2022-10-07T04:50:30.911Z,102.38
2022-10-07T04:55:47.230Z,60.33
2022-10-07T05:01:05.036Z,52.50
2022-10-07T05:06:23.967Z,41.58
2022-10-07T05:11:39.010Z,34.70
2022-10-07T05:16:59.234Z,36.28
2022-10-07T05:22:16.927Z,26.20
2022-10-07T05:27:32.906Z,29.40
2022-10-07T05:32:47.965Z,34.92
2022-10-07T05:38:04.945Z,28.30
2022-10-07T05:43:19.948Z,22.33
2022-10-07T05:48:39.363Z,20.55
2022-10-07T05:53:55.954Z,18.20
2022-10-07T05:59:18.957Z,16.65
2022-10-07T06:04:34.958Z,18.63
2022-10-07T06:09:49.956Z,16.63
2022-10-07T06:15:04.708Z,18.42
2022-10-07T06:20:23.006Z,13.55
2022-10-07T06:25:39.239Z,12.88
2022-10-07T06:30:55.015Z,12.65
2022-10-07T06:36:10.291Z,10.73
2022-10-07T06:41:27.971Z,10.57
2022-10-07T06:47:07.787Z,8.77
2022-10-07T06:52:28.378Z,9.85
2022-10-07T06:57:46.271Z,7.85
2022-10-07T07:03:02.936Z,7.25
2022-10-07T07:08:18.692Z,7.93
2022-10-07T07:13:34.939Z,7.70
2022-10-07T07:18:49.951Z,6.35
2022-10-07T07:24:05.953Z,6.57
2022-10-07T07:29:20.978Z,6.63
2022-10-07T07:34:38.786Z,5.78
2022-10-07T07:39:59.951Z,5.72
2022-10-07T07:45:16.187Z,4.50
2022-10-07T07:50:33.247Z,5.47
2022-10-07T07:55:49.329Z,5.35
2022-10-07T08:01:06.230Z,5.18
2022-10-07T08:06:22.948Z,4.15
2022-10-07T08:11:38.002Z,5.47
2022-10-07T08:16:55.936Z,4.88
2022-10-07T08:22:11.980Z,5.05
2022-10-07T08:27:31.057Z,5.07
2022-10-07T08:32:47.059Z,4.50
2022-10-07T08:38:01.965Z,4.72
2022-10-07T08:43:16.991Z,4.57
2022-10-07T08:48:31.970Z,3.38
2022-10-07T08:54:23.978Z,3.63
2022-10-07T08:59:38.999Z,4.05
2022-10-07T09:04:53.982Z,4.00
2022-10-07T09:10:08.984Z,4.03
2022-10-07T09:15:23.969Z,4.15
2022-10-07T09:20:38.978Z,3.25
2022-10-07T09:25:53.979Z,3.95
2022-10-07T09:31:09.035Z,3.45
2022-10-07T09:36:24.334Z,3.53
2022-10-07T09:41:40.006Z,3.55
2022-10-07T09:46:55.355Z,4.05
2022-10-07T09:52:11.296Z,3.72
2022-10-07T09:57:27.274Z,3.03
2022-10-07T10:02:43.102Z,3.55
2022-10-07T10:07:57.749Z,3.33
2022-10-07T10:13:13.268Z,3.25
2022-10-07T10:18:29.306Z,3.83
2022-10-07T10:23:44.990Z,4.00
2022-10-07T10:28:59.943Z,4.60
2022-10-07T10:34:15.311Z,4.03
2022-10-07T10:39:30.963Z,3.47
2022-10-07T10:44:45.980Z,3.17
2022-10-07T10:50:01.065Z,3.92
2022-10-07T10:55:15.873Z,3.40
2022-10-07T11:00:30.781Z,2.97
2022-10-07T11:05:45.992Z,3.53
2022-10-07T11:11:01.016Z,4.07
2022-10-07T11:16:16.032Z,3.60
2022-10-07T11:21:31.022Z,3.38
2022-10-07T11:26:46.240Z,3.65
2022-10-07T11:32:01.946Z,3.88
2022-10-07T11:37:16.960Z,3.00
2022-10-07T11:42:32.023Z,2.38
2022-10-07T11:47:47.027Z,3.20
2022-10-07T11:53:02.083Z,3.60
2022-10-07T11:58:16.999Z,2.75
2022-10-07T12:03:32.373Z,2.15
2022-10-07T12:08:48.429Z,2.55
2022-10-07T12:14:03.996Z,2.50
2022-10-07T12:19:23.253Z,3.28
2022-10-07T12:24:38.734Z,2.20
2022-10-07T12:29:54.017Z,2.35
2022-10-07T12:35:08.990Z,2.42
2022-10-07T12:40:24.007Z,2.10
2022-10-07T12:45:39.028Z,2.00
2022-10-07T12:50:53.724Z,1.98
2022-10-07T12:56:08.963Z,8.32
2022-10-07T13:01:24.101Z,10.95
2022-10-07T13:06:38.975Z,13.38
2022-10-07T13:11:54.019Z,14.60
2022-10-07T13:17:08.964Z,15.95
2022-10-07T13:22:24.068Z,15.48
2022-10-07T13:27:39.044Z,17.13
2022-10-07T13:32:54.008Z,15.32
2022-10-07T13:38:09.289Z,15.07
2022-10-07T13:43:24.990Z,13.95
2022-10-07T13:48:44.510Z,14.32
2022-10-07T13:54:00.977Z,12.35
2022-10-07T13:59:16.022Z,13.68
2022-10-07T14:04:30.996Z,10.35
2022-10-07T14:09:46.072Z,10.18
2022-10-07T14:15:01.036Z,11.00
2022-10-07T14:20:16.196Z,9.93
2022-10-07T14:25:32.049Z,9.70
2022-10-07T14:30:49.949Z,10.55
2022-10-07T14:36:09.248Z,8.52
2022-10-07T14:41:25.010Z,8.70
2022-10-07T14:46:39.819Z,7.03
2022-10-07T14:51:55.044Z,7.43
2022-10-07T14:57:10.009Z,6.95
2022-10-07T15:02:24.897Z,6.90
2022-10-07T15:07:39.981Z,6.28
2022-10-07T15:12:54.999Z,5.90
2022-10-07T15:18:10.059Z,6.22
2022-10-07T15:23:25.014Z,5.30
2022-10-07T15:28:40.021Z,5.38
2022-10-07T15:33:54.728Z,4.68
2022-10-07T15:39:10.302Z,4.95
2022-10-07T15:44:26.018Z,5.07
2022-10-07T15:49:41.331Z,4.78
2022-10-07T15:54:57.020Z,4.18
2022-10-07T16:00:12.026Z,4.40
2022-10-07T16:05:27.078Z,4.10
2022-10-07T16:10:42.033Z,3.80
2022-10-07T16:15:57.105Z,4.25
2022-10-07T16:21:12.036Z,4.07
2022-10-07T16:26:27.015Z,4.35
2022-10-07T16:31:42.030Z,4.40
2022-10-07T16:36:57.027Z,3.53
2022-10-07T16:42:12.366Z,3.40
2022-10-07T16:47:27.984Z,3.40
2022-10-07T16:52:42.769Z,3.20
2022-10-07T16:57:58.007Z,3.22
2022-10-07T17:03:12.964Z,3.53
2022-10-07T17:08:28.077Z,2.78
2022-10-07T17:13:43.077Z,2.80
2022-10-07T17:18:58.303Z,3.60
2022-10-07T17:24:13.775Z,2.85
2022-10-07T17:29:29.311Z,2.47
2022-10-07T17:34:45.638Z,3.13
2022-10-07T17:40:01.072Z,3.20
2022-10-07T17:45:15.983Z,2.63
2022-10-07T17:50:31.039Z,2.50
2022-10-07T17:55:45.997Z,2.15
2022-10-07T18:01:01.141Z,2.85
2022-10-07T18:06:17.029Z,2.67
2022-10-07T18:11:32.399Z,2.38
2022-10-07T18:16:48.010Z,2.35
2022-10-07T18:22:03.296Z,2.63
2022-10-07T18:27:19.005Z,2.45
2022-10-07T18:32:33.762Z,2.75
2022-10-07T18:37:49.252Z,2.80
2022-10-07T18:43:05.021Z,2.13
2022-10-07T18:48:19.982Z,2.03
2022-10-07T18:53:34.808Z,2.28
2022-10-07T18:58:50.001Z,2.30
2022-10-07T19:04:05.061Z,2.38
2022-10-07T19:09:20.067Z,2.20
2022-10-07T19:14:35.006Z,2.78
2022-10-07T19:19:49.998Z,3.65
2022-10-07T19:25:04.771Z,2.22
2022-10-07T19:30:20.350Z,2.83
2022-10-07T19:35:36.329Z,2.22
2022-10-07T19:40:52.005Z,2.00
2022-10-07T19:46:07.064Z,2.03
2022-10-07T19:51:22.046Z,2.55
2022-10-07T19:56:36.791Z,2.15
2022-10-07T20:01:52.036Z,2.35
2022-10-07T20:07:07.033Z,2.10
2022-10-07T20:12:22.007Z,1.90
2022-10-07T20:17:37.233Z,2.40
2022-10-07T20:22:53.316Z,2.35
2022-10-07T20:28:09.112Z,2.22
2022-10-07T20:33:24.321Z,1.92
2022-10-07T20:38:40.020Z,1.95
2022-10-07T20:43:55.335Z,2.00
2022-10-07T20:49:11.001Z,2.30
2022-10-07T20:54:26.338Z,1.90
2022-10-07T20:59:42.000Z,2.53
2022-10-07T21:04:57.032Z,2.22
2022-10-07T21:10:12.079Z,2.10
2022-10-07T21:15:27.043Z,2.30
2022-10-07T21:20:41.784Z,2.47
2022-10-07T21:25:57.097Z,3.45
2022-10-07T21:31:12.358Z,2.17
2022-10-07T21:36:28.330Z,2.45
2022-10-07T21:41:44.060Z,2.63
2022-10-07T21:46:59.033Z,2.22
2022-10-07T21:52:14.375Z,2.40
2022-10-07T21:57:29.983Z,2.20
2022-10-07T22:02:45.481Z,2.05
2022-10-07T22:08:01.316Z,2.10
2022-10-07T22:13:17.029Z,2.22
2022-10-07T22:18:32.009Z,2.42
2022-10-07T22:23:47.078Z,2.50
2022-10-07T22:29:02.338Z,2.45
2022-10-07T22:34:17.771Z,2.42
2022-10-07T22:39:33.360Z,2.38
2022-10-07T22:44:49.012Z,2.55
2022-10-07T22:50:04.009Z,2.47
2022-10-07T22:55:18.999Z,2.65
2022-10-07T23:00:34.008Z,3.03
2022-10-07T23:05:49.029Z,2.30
2022-10-07T23:11:04.025Z,2.08
2022-10-07T23:16:19.387Z,2.45
2022-10-07T23:21:35.022Z,2.58
2022-10-07T23:26:50.055Z,2.25
2022-10-07T23:32:05.340Z,2.47
2022-10-07T23:37:21.086Z,1.95
2022-10-07T23:42:35.989Z,2.45
2022-10-07T23:47:51.012Z,2.60
2022-10-07T23:53:06.010Z,2.17
2022-10-07T23:58:21.381Z,2.45
